Sacramento, California
Traffic Map
Current Weather Conditions
Sacramento, California
Clear
Clear
73°
Feels Like: 73°
Wind Chill: 73° Ceiling: Unl
Heat Index: 73° Visibility: 10mi
Dew Point: 59° Wind: 9mph
Humidity: 61% Direction: 210° (SSW)
Pressure: 29.98in Gusts: 0mph
Raw Report DataKSAC 240353Z AUTO 21008KT 10SM CLR 23/15 A2998 RMK AO2 SLP151 T02280150 TSNO
Traffic Incident Summary
Active as of:
Severity:
Category:
InformationThere was an issue retrieving the traffic information for this location. Please try a different location or try again shortly.
Advertisements
Track Severe Weather on mobile